Estación Meteorológica Peña el Pijo (Robertgarden) [ 01/30/23 14:59:07 CET ]

Fecha Hora Presion(HPa) Temp (°C) Humedad % Rocio (°C) Viento ( m/s) Direccion Lluvia 1Hora(mm) Lluvia 24H(mm) LLuvia Total(mm)
2010-Oct-14 01:01:15 1007.800 9.4 87 7.3         169.90
2010-Oct-14 02:01:17 1007.600 10.5 87 8.4         169.90
2010-Oct-14 03:03:12 1007.600 10.9 84 8.3         169.90
2010-Oct-14 04:01:13 1007.200 9.8 85 7.4         169.90
2010-Oct-14 05:01:14 1006.900 9.3 87 7.2         169.90
2010-Oct-14 06:01:14 1006.900 8.8 88 6.9         169.90
2010-Oct-14 07:01:13 1007.000 7.6 88 5.8         169.90
2010-Oct-14 08:01:13 1007.300 7.2 90 5.7         169.90
2010-Oct-14 09:01:12 1007.300 7.3 91 6.0         169.90
2010-Oct-14 10:01:17 1008.000 12.9 89 11.3         169.90
2010-Oct-14 11:01:17 1007.900 16.8 71 11.5         169.90
2010-Oct-14 12:01:13 1007.800 19.3 59 11.1         169.90
2010-Oct-14 13:01:16 1007.300 23.6 44 10.6         169.90
2010-Oct-14 14:01:13 1007.100 21.8 49 10.6         169.90
2010-Oct-14 15:01:14 1006.500 20.8 49 9.7         169.90
2010-Oct-14 16:01:17 1006.000 24.5 41 10.4         169.90
2010-Oct-14 17:01:13 1006.000 19.2 50 8.6         169.90
2010-Oct-14 18:01:16 1006.300 17.9 54 8.4         169.90
2010-Oct-14 19:01:14 1006.100 17.3 52 7.3         169.90
2010-Oct-14 20:01:13 1006.500 14.9 61 7.4         169.90
2010-Oct-14 21:01:14 1007.000 13.4 69 7.8         169.90
2010-Oct-14 22:01:17 1007.300 11.3 75 7.0         169.90
2010-Oct-14 23:01:12 1007.400 10.3 81 7.2         169.90

Temperatura Máxima:24°    Temperatura Mínima:
Presión Máxima:1008.000 Hpa    Presión Mínima:1006.000 Hpa


Volver